F/V Le Dolmen — FHMD — position and weather

sailwx.info

Track history (hours):
 
Tides and Currents Weather Stations Pressure Air Temp Water Temp Dewpoint Dewpoint Depression Visibility Wind Speed Wind Dir Waves Ship Positions

F/V Le Dolmen

Last reported at 2015-Aug-28 23:33 UTC. Time now 2015-Aug-29 00:21 UTC.
Position N 47°43' W 005°02'.

Length 18 m.

Type: Fishing. MMSI: 228374000.

Date/timePositionNaut miles runAvg speedWind from/ knotsBaromVisibWave heightAir tempDewpointWater temp
2015-Aug-28 23:33N 47°43' W 005°02'56 1.2
2015-Aug-27 00:30N 47°40' W 003°39'9 9.4
2015-Aug-26 23:34N 47°41' W 003°26'4 4.3
2015-Aug-26 22:34N 47°44' W 003°22'  
2015-Aug-24 02:31N 47°44' W 003°22'0 0.2
2015-Aug-24 01:33N 47°44' W 003°22'0 0.0
2015-Aug-24 00:34N 47°44' W 003°22'0 0.0
2015-Aug-23 23:33N 47°44' W 003°22'0 0.0
2015-Aug-23 22:34N 47°44' W 003°22'0 0.0
2015-Aug-23 21:34N 47°44' W 003°22'3 3.0
2015-Aug-23 20:34N 47°41' W 003°24'10 9.7
2015-Aug-23 19:34N 47°42' W 003°38'36 1.0
2015-Aug-22 08:19N 47°44' W 004°31'15 3.9
2015-Aug-22 04:25N 47°44' W 004°54'3 1.6
2015-Aug-22 02:20N 47°43' W 004°49'3 2.7
2015-Aug-22 01:10N 47°43' W 004°54'2 3.0
2015-Aug-22 00:33N 47°44' W 004°56'3 1.5
2015-Aug-21 22:33N 47°43' W 004°52'19 2.3
2015-Aug-21 14:30N 47°45' W 004°24'0 0.1
2015-Aug-21 08:23N 47°45' W 004°25'19 3.9
2015-Aug-21 03:25N 47°44' W 004°53'3 2.9
2015-Aug-21 02:30N 47°42' W 004°52'1 0.2
2015-Aug-20 22:31N 47°42' W 004°52'3 0.1
2015-Aug-19 11:33N 47°43' W 004°56'  
Track history (hours):
 
Tides and Currents Weather Stations Pressure Air Temp Water Temp Dewpoint Dewpoint Depression Visibility Wind Speed Wind Dir Waves Ship Positions

F/V Le Dolmen

Last reported at 2015-Aug-28 23:33 UTC. Time now 2015-Aug-29 00:21 UTC.
Position N 47°43' W 005°02'.

Length 18 m.

Type: Fishing. MMSI: 228374000.

Date/timePositionNaut miles runAvg speedWind from/ knotsBaromVisibWave heightAir tempDewpointWater temp
2015-Aug-28 23:33N 47°43' W 005°02'56 1.2
2015-Aug-27 00:30N 47°40' W 003°39'9 9.4
2015-Aug-26 23:34N 47°41' W 003°26'4 4.3
2015-Aug-26 22:34N 47°44' W 003°22'  
2015-Aug-24 02:31N 47°44' W 003°22'0 0.2
2015-Aug-24 01:33N 47°44' W 003°22'0 0.0
2015-Aug-24 00:34N 47°44' W 003°22'0 0.0
2015-Aug-23 23:33N 47°44' W 003°22'0 0.0
2015-Aug-23 22:34N 47°44' W 003°22'0 0.0
2015-Aug-23 21:34N 47°44' W 003°22'3 3.0
2015-Aug-23 20:34N 47°41' W 003°24'10 9.7
2015-Aug-23 19:34N 47°42' W 003°38'36 1.0
2015-Aug-22 08:19N 47°44' W 004°31'15 3.9
2015-Aug-22 04:25N 47°44' W 004°54'3 1.6
2015-Aug-22 02:20N 47°43' W 004°49'3 2.7
2015-Aug-22 01:10N 47°43' W 004°54'2 3.0
2015-Aug-22 00:33N 47°44' W 004°56'3 1.5
2015-Aug-21 22:33N 47°43' W 004°52'19 2.3
2015-Aug-21 14:30N 47°45' W 004°24'0 0.1
2015-Aug-21 08:23N 47°45' W 004°25'19 3.9
2015-Aug-21 03:25N 47°44' W 004°53'3 2.9
2015-Aug-21 02:30N 47°42' W 004°52'1 0.2
2015-Aug-20 22:31N 47°42' W 004°52'3 0.1
2015-Aug-19 11:33N 47°43' W 004°56'  

Dump ship's entire track history